sensor_id;sensor_type;location;lat;lon;timestamp;P1;durP1;ratioP1;P2;durP2;ratioP2
572;SDS011;271;51.114;13.780;2023-06-22T00:00:48;22.00;;;8.60;;
572;SDS011;271;51.114;13.780;2023-06-22T00:03:44;21.80;;;8.33;;
572;SDS011;271;51.114;13.780;2023-06-22T00:06:38;22.20;;;8.37;;
572;SDS011;271;51.114;13.780;2023-06-22T00:09:31;20.60;;;7.70;;
572;SDS011;271;51.114;13.780;2023-06-22T00:12:21;22.37;;;9.33;;
572;SDS011;271;51.114;13.780;2023-06-22T00:15:10;21.53;;;8.53;;
572;SDS011;271;51.114;13.780;2023-06-22T00:18:15;20.33;;;7.57;;
572;SDS011;271;51.114;13.780;2023-06-22T00:21:09;20.80;;;7.70;;
572;SDS011;271;51.114;13.780;2023-06-22T00:24:00;21.57;;;8.27;;
572;SDS011;271;51.114;13.780;2023-06-22T00:26:54;22.77;;;8.17;;
572;SDS011;271;51.114;13.780;2023-06-22T00:29:47;21.97;;;8.73;;
572;SDS011;271;51.114;13.780;2023-06-22T00:32:38;20.30;;;8.00;;
572;SDS011;271;51.114;13.780;2023-06-22T00:35:26;20.13;;;7.30;;
572;SDS011;271;51.114;13.780;2023-06-22T00:38:17;21.10;;;8.20;;
572;SDS011;271;51.114;13.780;2023-06-22T00:41:12;22.00;;;8.70;;
572;SDS011;271;51.114;13.780;2023-06-22T00:44:07;21.27;;;8.70;;
572;SDS011;271;51.114;13.780;2023-06-22T00:47:00;21.30;;;9.00;;
572;SDS011;271;51.114;13.780;2023-06-22T00:49:49;21.73;;;9.03;;
572;SDS011;271;51.114;13.780;2023-06-22T00:52:40;23.10;;;8.67;;
572;SDS011;271;51.114;13.780;2023-06-22T00:55:35;22.13;;;9.03;;
572;SDS011;271;51.114;13.780;2023-06-22T00:58:24;22.63;;;9.20;;
572;SDS011;271;51.114;13.780;2023-06-22T01:01:13;24.30;;;8.30;;
572;SDS011;271;51.114;13.780;2023-06-22T01:04:10;21.50;;;7.90;;
572;SDS011;271;51.114;13.780;2023-06-22T01:07:02;23.30;;;9.60;;
572;SDS011;271;51.114;13.780;2023-06-22T01:09:59;20.30;;;7.90;;
572;SDS011;271;51.114;13.780;2023-06-22T01:12:55;20.60;;;8.20;;
572;SDS011;271;51.114;13.780;2023-06-22T01:15:57;22.87;;;9.10;;
572;SDS011;271;51.114;13.780;2023-06-22T01:18:51;21.60;;;8.13;;
572;SDS011;271;51.114;13.780;2023-06-22T01:21:43;21.77;;;9.53;;
572;SDS011;271;51.114;13.780;2023-06-22T01:24:39;21.93;;;8.70;;
572;SDS011;271;51.114;13.780;2023-06-22T01:27:45;21.37;;;8.77;;
572;SDS011;271;51.114;13.780;2023-06-22T01:30:44;23.03;;;9.17;;
572;SDS011;271;51.114;13.780;2023-06-22T01:33:51;22.03;;;8.47;;
572;SDS011;271;51.114;13.780;2023-06-22T01:36:44;21.93;;;8.93;;
572;SDS011;271;51.114;13.780;2023-06-22T01:39:37;21.53;;;8.67;;
572;SDS011;271;51.114;13.780;2023-06-22T01:42:25;21.03;;;8.77;;
572;SDS011;271;51.114;13.780;2023-06-22T01:45:14;21.70;;;8.67;;
572;SDS011;271;51.114;13.780;2023-06-22T01:48:05;22.20;;;8.80;;
572;SDS011;271;51.114;13.780;2023-06-22T01:50:56;22.00;;;9.73;;
572;SDS011;271;51.114;13.780;2023-06-22T01:53:45;22.33;;;8.73;;
572;SDS011;271;51.114;13.780;2023-06-22T01:56:34;21.03;;;8.57;;
572;SDS011;271;51.114;13.780;2023-06-22T01:59:23;22.37;;;9.10;;
572;SDS011;271;51.114;13.780;2023-06-22T02:02:20;21.40;;;8.70;;
572;SDS011;271;51.114;13.780;2023-06-22T02:05:17;21.73;;;8.60;;
572;SDS011;271;51.114;13.780;2023-06-22T02:08:17;20.47;;;8.00;;
572;SDS011;271;51.114;13.780;2023-06-22T02:11:16;22.47;;;9.17;;
572;SDS011;271;51.114;13.780;2023-06-22T02:14:10;22.30;;;9.97;;
572;SDS011;271;51.114;13.780;2023-06-22T02:17:07;22.93;;;9.27;;
572;SDS011;271;51.114;13.780;2023-06-22T02:20:05;21.63;;;8.63;;
572;SDS011;271;51.114;13.780;2023-06-22T02:23:03;22.30;;;8.93;;
572;SDS011;271;51.114;13.780;2023-06-22T02:25:56;21.73;;;9.23;;
572;SDS011;271;51.114;13.780;2023-06-22T02:28:45;21.37;;;8.83;;
572;SDS011;271;51.114;13.780;2023-06-22T02:31:37;21.73;;;8.77;;
572;SDS011;271;51.114;13.780;2023-06-22T02:34:25;26.87;;;10.13;;
572;SDS011;271;51.114;13.780;2023-06-22T02:37:13;23.00;;;9.80;;
572;SDS011;271;51.114;13.780;2023-06-22T02:40:06;23.17;;;9.87;;
572;SDS011;271;51.114;13.780;2023-06-22T02:43:00;21.50;;;8.90;;
572;SDS011;271;51.114;13.780;2023-06-22T02:45:52;21.40;;;8.70;;
572;SDS011;271;51.114;13.780;2023-06-22T02:48:46;21.70;;;9.30;;
572;SDS011;271;51.114;13.780;2023-06-22T02:51:38;23.90;;;8.90;;
572;SDS011;271;51.114;13.780;2023-06-22T02:54:34;23.30;;;9.60;;
572;SDS011;271;51.114;13.780;2023-06-22T02:57:24;23.53;;;10.33;;
572;SDS011;271;51.114;13.780;2023-06-22T03:00:19;23.50;;;10.60;;
572;SDS011;271;51.114;13.780;2023-06-22T03:03:09;21.80;;;9.37;;
572;SDS011;271;51.114;13.780;2023-06-22T03:06:02;23.57;;;10.20;;
572;SDS011;271;51.114;13.780;2023-06-22T03:08:51;21.70;;;9.60;;
572;SDS011;271;51.114;13.780;2023-06-22T03:11:47;22.13;;;9.60;;
572;SDS011;271;51.114;13.780;2023-06-22T03:14:39;22.03;;;9.30;;
572;SDS011;271;51.114;13.780;2023-06-22T03:17:29;21.60;;;8.63;;
572;SDS011;271;51.114;13.780;2023-06-22T03:20:23;22.50;;;9.33;;
572;SDS011;271;51.114;13.780;2023-06-22T03:23:22;23.17;;;9.60;;
572;SDS011;271;51.114;13.780;2023-06-22T03:26:16;22.77;;;9.10;;
572;SDS011;271;51.114;13.780;2023-06-22T03:29:07;22.50;;;9.10;;
572;SDS011;271;51.114;13.780;2023-06-22T03:31:56;21.57;;;8.70;;
572;SDS011;271;51.114;13.780;2023-06-22T03:34:49;21.47;;;9.00;;
572;SDS011;271;51.114;13.780;2023-06-22T03:37:40;23.60;;;9.70;;
572;SDS011;271;51.114;13.780;2023-06-22T03:40:28;24.00;;;9.60;;
572;SDS011;271;51.114;13.780;2023-06-22T03:43:20;21.23;;;9.07;;
572;SDS011;271;51.114;13.780;2023-06-22T03:46:14;22.23;;;9.17;;
572;SDS011;271;51.114;13.780;2023-06-22T03:49:07;25.80;;;10.50;;
572;SDS011;271;51.114;13.780;2023-06-22T03:51:55;22.10;;;8.93;;
572;SDS011;271;51.114;13.780;2023-06-22T03:54:43;21.70;;;8.73;;
572;SDS011;271;51.114;13.780;2023-06-22T03:57:35;22.67;;;9.83;;
572;SDS011;271;51.114;13.780;2023-06-22T04:00:32;23.23;;;9.70;;
572;SDS011;271;51.114;13.780;2023-06-22T04:03:25;22.30;;;10.03;;
572;SDS011;271;51.114;13.780;2023-06-22T04:06:23;21.70;;;9.33;;
572;SDS011;271;51.114;13.780;2023-06-22T04:09:14;22.10;;;8.87;;
572;SDS011;271;51.114;13.780;2023-06-22T04:12:11;22.97;;;9.50;;
572;SDS011;271;51.114;13.780;2023-06-22T04:15:00;22.27;;;9.23;;
572;SDS011;271;51.114;13.780;2023-06-22T04:17:51;22.73;;;9.83;;
572;SDS011;271;51.114;13.780;2023-06-22T04:20:42;21.43;;;8.83;;
572;SDS011;271;51.114;13.780;2023-06-22T04:23:38;21.23;;;9.23;;
572;SDS011;271;51.114;13.780;2023-06-22T04:26:28;20.90;;;8.77;;
572;SDS011;271;51.114;13.780;2023-06-22T04:29:24;22.40;;;9.60;;
572;SDS011;271;51.114;13.780;2023-06-22T04:32:20;21.93;;;8.40;;
572;SDS011;271;51.114;13.780;2023-06-22T04:35:11;22.77;;;9.63;;
572;SDS011;271;51.114;13.780;2023-06-22T04:38:04;21.47;;;9.00;;
572;SDS011;271;51.114;13.780;2023-06-22T04:40:53;21.50;;;8.50;;
572;SDS011;271;51.114;13.780;2023-06-22T04:43:42;24.83;;;8.87;;
572;SDS011;271;51.114;13.780;2023-06-22T04:46:40;21.17;;;8.20;;
572;SDS011;271;51.114;13.780;2023-06-22T04:49:38;21.67;;;9.70;;
572;SDS011;271;51.114;13.780;2023-06-22T04:52:29;21.07;;;9.00;;
572;SDS011;271;51.114;13.780;2023-06-22T04:55:17;22.50;;;8.80;;
572;SDS011;271;51.114;13.780;2023-06-22T04:58:14;22.47;;;8.70;;
572;SDS011;271;51.114;13.780;2023-06-22T05:01:02;21.30;;;7.70;;
572;SDS011;271;51.114;13.780;2023-06-22T05:03:54;21.90;;;10.27;;
572;SDS011;271;51.114;13.780;2023-06-22T05:06:53;21.93;;;9.37;;
572;SDS011;271;51.114;13.780;2023-06-22T05:09:43;21.20;;;8.20;;
572;SDS011;271;51.114;13.780;2023-06-22T05:12:35;21.67;;;9.97;;
572;SDS011;271;51.114;13.780;2023-06-22T05:15:25;23.80;;;9.43;;
572;SDS011;271;51.114;13.780;2023-06-22T05:18:19;25.07;;;10.70;;
572;SDS011;271;51.114;13.780;2023-06-22T05:21:12;23.20;;;10.37;;
572;SDS011;271;51.114;13.780;2023-06-22T05:24:00;22.37;;;9.73;;
572;SDS011;271;51.114;13.780;2023-06-22T05:26:50;22.00;;;8.77;;
572;SDS011;271;51.114;13.780;2023-06-22T05:29:38;21.00;;;9.10;;
572;SDS011;271;51.114;13.780;2023-06-22T05:32:29;22.03;;;10.90;;
572;SDS011;271;51.114;13.780;2023-06-22T05:35:20;19.93;;;8.50;;
572;SDS011;271;51.114;13.780;2023-06-22T05:38:09;19.83;;;9.13;;
572;SDS011;271;51.114;13.780;2023-06-22T05:40:57;19.67;;;8.03;;
572;SDS011;271;51.114;13.780;2023-06-22T05:43:45;20.40;;;9.77;;
572;SDS011;271;51.114;13.780;2023-06-22T05:46:35;21.00;;;9.30;;
572;SDS011;271;51.114;13.780;2023-06-22T05:49:25;19.60;;;8.87;;
572;SDS011;271;51.114;13.780;2023-06-22T05:52:23;20.43;;;9.27;;
572;SDS011;271;51.114;13.780;2023-06-22T05:55:15;21.33;;;9.07;;
572;SDS011;271;51.114;13.780;2023-06-22T05:58:07;19.60;;;9.63;;
572;SDS011;271;51.114;13.780;2023-06-22T06:00:59;19.77;;;9.30;;
572;SDS011;271;51.114;13.780;2023-06-22T06:03:51;18.90;;;9.10;;
572;SDS011;271;51.114;13.780;2023-06-22T06:06:41;20.00;;;8.90;;
572;SDS011;271;51.114;13.780;2023-06-22T06:09:29;18.37;;;8.27;;
572;SDS011;271;51.114;13.780;2023-06-22T06:12:20;20.03;;;8.27;;
572;SDS011;271;51.114;13.780;2023-06-22T06:15:13;19.83;;;8.87;;
572;SDS011;271;51.114;13.780;2023-06-22T06:18:11;19.83;;;9.40;;
572;SDS011;271;51.114;13.780;2023-06-22T06:21:01;19.10;;;8.70;;
572;SDS011;271;51.114;13.780;2023-06-22T06:23:57;20.80;;;9.70;;
572;SDS011;271;51.114;13.780;2023-06-22T06:26:46;19.93;;;8.70;;
572;SDS011;271;51.114;13.780;2023-06-22T06:29:41;18.70;;;9.30;;
572;SDS011;271;51.114;13.780;2023-06-22T06:32:36;19.33;;;9.30;;
572;SDS011;271;51.114;13.780;2023-06-22T06:35:27;20.80;;;10.67;;
572;SDS011;271;51.114;13.780;2023-06-22T06:38:18;20.10;;;10.00;;
572;SDS011;271;51.114;13.780;2023-06-22T06:41:10;19.27;;;9.70;;
572;SDS011;271;51.114;13.780;2023-06-22T06:43:59;20.10;;;9.70;;
572;SDS011;271;51.114;13.780;2023-06-22T06:46:50;21.40;;;10.10;;
572;SDS011;271;51.114;13.780;2023-06-22T06:49:43;21.00;;;11.07;;
572;SDS011;271;51.114;13.780;2023-06-22T06:52:38;20.17;;;10.30;;
572;SDS011;271;51.114;13.780;2023-06-22T06:55:33;20.83;;;10.80;;
572;SDS011;271;51.114;13.780;2023-06-22T06:58:26;22.47;;;10.47;;
572;SDS011;271;51.114;13.780;2023-06-22T07:01:17;23.87;;;10.10;;
572;SDS011;271;51.114;13.780;2023-06-22T07:04:07;20.63;;;10.10;;
572;SDS011;271;51.114;13.780;2023-06-22T07:07:04;22.07;;;10.93;;
572;SDS011;271;51.114;13.780;2023-06-22T07:09:54;21.70;;;10.47;;
572;SDS011;271;51.114;13.780;2023-06-22T07:12:48;21.00;;;11.20;;
572;SDS011;271;51.114;13.780;2023-06-22T07:15:38;21.23;;;10.90;;
572;SDS011;271;51.114;13.780;2023-06-22T07:18:31;20.67;;;11.10;;
572;SDS011;271;51.114;13.780;2023-06-22T07:21:22;20.50;;;10.90;;
572;SDS011;271;51.114;13.780;2023-06-22T07:24:13;21.83;;;10.63;;
572;SDS011;271;51.114;13.780;2023-06-22T07:27:02;19.90;;;10.77;;
572;SDS011;271;51.114;13.780;2023-06-22T07:29:55;19.33;;;10.03;;
572;SDS011;271;51.114;13.780;2023-06-22T07:32:50;19.40;;;9.40;;
572;SDS011;271;51.114;13.780;2023-06-22T07:35:40;20.07;;;10.80;;
572;SDS011;271;51.114;13.780;2023-06-22T07:38:34;18.57;;;9.03;;
572;SDS011;271;51.114;13.780;2023-06-22T07:41:25;20.00;;;10.27;;
572;SDS011;271;51.114;13.780;2023-06-22T07:44:15;19.00;;;9.87;;
572;SDS011;271;51.114;13.780;2023-06-22T07:47:06;23.53;;;10.87;;
572;SDS011;271;51.114;13.780;2023-06-22T07:49:57;19.10;;;10.03;;
572;SDS011;271;51.114;13.780;2023-06-22T07:52:54;18.63;;;9.33;;
572;SDS011;271;51.114;13.780;2023-06-22T07:55:45;21.50;;;9.50;;
572;SDS011;271;51.114;13.780;2023-06-22T07:58:39;20.00;;;10.00;;
572;SDS011;271;51.114;13.780;2023-06-22T08:01:29;19.97;;;9.97;;
572;SDS011;271;51.114;13.780;2023-06-22T08:04:20;19.37;;;9.20;;
572;SDS011;271;51.114;13.780;2023-06-22T08:07:14;21.30;;;9.33;;
572;SDS011;271;51.114;13.780;2023-06-22T08:10:05;18.97;;;9.80;;
572;SDS011;271;51.114;13.780;2023-06-22T08:12:57;24.70;;;11.00;;
572;SDS011;271;51.114;13.780;2023-06-22T08:15:47;18.33;;;9.53;;
572;SDS011;271;51.114;13.780;2023-06-22T08:18:41;19.30;;;9.30;;
572;SDS011;271;51.114;13.780;2023-06-22T08:21:32;21.00;;;10.30;;
572;SDS011;271;51.114;13.780;2023-06-22T08:24:23;22.57;;;10.57;;
572;SDS011;271;51.114;13.780;2023-06-22T08:27:18;19.30;;;9.87;;
572;SDS011;271;51.114;13.780;2023-06-22T08:30:09;21.30;;;11.00;;
572;SDS011;271;51.114;13.780;2023-06-22T08:32:57;19.93;;;10.57;;
572;SDS011;271;51.114;13.780;2023-06-22T08:35:45;22.13;;;11.10;;
572;SDS011;271;51.114;13.780;2023-06-22T08:38:33;19.10;;;9.40;;
572;SDS011;271;51.114;13.780;2023-06-22T08:41:22;21.43;;;9.87;;
572;SDS011;271;51.114;13.780;2023-06-22T08:44:11;19.50;;;10.03;;
572;SDS011;271;51.114;13.780;2023-06-22T08:46:58;20.33;;;10.90;;
572;SDS011;271;51.114;13.780;2023-06-22T08:49:46;20.53;;;10.93;;
572;SDS011;271;51.114;13.780;2023-06-22T08:52:34;23.53;;;10.97;;
572;SDS011;271;51.114;13.780;2023-06-22T08:55:22;19.50;;;9.63;;
572;SDS011;271;51.114;13.780;2023-06-22T08:58:11;19.60;;;9.07;;
572;SDS011;271;51.114;13.780;2023-06-22T09:00:58;20.13;;;9.60;;
572;SDS011;271;51.114;13.780;2023-06-22T09:03:47;19.80;;;9.70;;
572;SDS011;271;51.114;13.780;2023-06-22T09:06:40;19.00;;;8.90;;
572;SDS011;271;51.114;13.780;2023-06-22T09:09:30;20.40;;;9.23;;
572;SDS011;271;51.114;13.780;2023-06-22T09:12:19;19.87;;;10.50;;
572;SDS011;271;51.114;13.780;2023-06-22T09:15:12;20.30;;;9.77;;
572;SDS011;271;51.114;13.780;2023-06-22T09:18:00;19.67;;;9.10;;
572;SDS011;271;51.114;13.780;2023-06-22T09:20:48;19.80;;;9.47;;
572;SDS011;271;51.114;13.780;2023-06-22T09:23:36;21.67;;;8.50;;
572;SDS011;271;51.114;13.780;2023-06-22T09:26:24;19.30;;;7.87;;
572;SDS011;271;51.114;13.780;2023-06-22T09:29:12;20.60;;;9.07;;
572;SDS011;271;51.114;13.780;2023-06-22T09:32:01;20.20;;;9.77;;
572;SDS011;271;51.114;13.780;2023-06-22T09:34:48;19.13;;;9.17;;
572;SDS011;271;51.114;13.780;2023-06-22T09:37:36;18.37;;;8.60;;
572;SDS011;271;51.114;13.780;2023-06-22T09:40:24;19.33;;;8.80;;
572;SDS011;271;51.114;13.780;2023-06-22T09:43:11;19.03;;;8.90;;
572;SDS011;271;51.114;13.780;2023-06-22T09:46:00;19.83;;;8.90;;
572;SDS011;271;51.114;13.780;2023-06-22T09:48:49;20.27;;;9.80;;
572;SDS011;271;51.114;13.780;2023-06-22T09:51:36;19.47;;;9.30;;
572;SDS011;271;51.114;13.780;2023-06-22T09:54:24;20.50;;;8.63;;
572;SDS011;271;51.114;13.780;2023-06-22T09:57:12;20.07;;;8.60;;
572;SDS011;271;51.114;13.780;2023-06-22T10:00:00;19.60;;;8.90;;
572;SDS011;271;51.114;13.780;2023-06-22T10:02:51;19.73;;;9.30;;
572;SDS011;271;51.114;13.780;2023-06-22T10:05:40;18.77;;;8.40;;
572;SDS011;271;51.114;13.780;2023-06-22T10:08:28;18.70;;;8.60;;
572;SDS011;271;51.114;13.780;2023-06-22T10:11:16;18.70;;;8.63;;
572;SDS011;271;51.114;13.780;2023-06-22T10:14:04;19.80;;;8.53;;
572;SDS011;271;51.114;13.780;2023-06-22T10:16:52;20.00;;;8.70;;
572;SDS011;271;51.114;13.780;2023-06-22T10:19:39;19.40;;;8.60;;
572;SDS011;271;51.114;13.780;2023-06-22T10:22:28;18.47;;;8.33;;
572;SDS011;271;51.114;13.780;2023-06-22T10:25:16;24.53;;;9.67;;
572;SDS011;271;51.114;13.780;2023-06-22T10:28:04;19.43;;;8.10;;
572;SDS011;271;51.114;13.780;2023-06-22T10:30:53;19.60;;;8.90;;
572;SDS011;271;51.114;13.780;2023-06-22T10:33:40;19.63;;;8.57;;
572;SDS011;271;51.114;13.780;2023-06-22T10:36:29;19.07;;;8.30;;
572;SDS011;271;51.114;13.780;2023-06-22T10:39:18;20.93;;;10.00;;
572;SDS011;271;51.114;13.780;2023-06-22T10:42:06;19.43;;;9.53;;
572;SDS011;271;51.114;13.780;2023-06-22T10:44:54;19.13;;;8.37;;
572;SDS011;271;51.114;13.780;2023-06-22T10:47:42;18.57;;;8.50;;
572;SDS011;271;51.114;13.780;2023-06-22T10:50:30;19.60;;;8.70;;
572;SDS011;271;51.114;13.780;2023-06-22T10:53:17;18.83;;;8.33;;
572;SDS011;271;51.114;13.780;2023-06-22T10:56:06;19.50;;;8.80;;
572;SDS011;271;51.114;13.780;2023-06-22T10:58:54;19.13;;;8.57;;
572;SDS011;271;51.114;13.780;2023-06-22T11:01:42;19.80;;;8.47;;
572;SDS011;271;51.114;13.780;2023-06-22T11:04:29;18.60;;;8.30;;
572;SDS011;271;51.114;13.780;2023-06-22T11:07:17;20.40;;;8.40;;
572;SDS011;271;51.114;13.780;2023-06-22T11:10:05;20.80;;;8.93;;
572;SDS011;271;51.114;13.780;2023-06-22T11:12:55;18.50;;;8.43;;
572;SDS011;271;51.114;13.780;2023-06-22T11:15:43;18.50;;;8.37;;
572;SDS011;271;51.114;13.780;2023-06-22T11:18:31;18.90;;;8.63;;
572;SDS011;271;51.114;13.780;2023-06-22T11:21:19;18.67;;;8.17;;
572;SDS011;271;51.114;13.780;2023-06-22T11:24:07;19.37;;;8.73;;
572;SDS011;271;51.114;13.780;2023-06-22T11:26:55;19.13;;;8.10;;
572;SDS011;271;51.114;13.780;2023-06-22T11:29:44;18.00;;;7.77;;
572;SDS011;271;51.114;13.780;2023-06-22T11:32:31;21.03;;;9.27;;
572;SDS011;271;51.114;13.780;2023-06-22T11:35:19;18.80;;;8.90;;
572;SDS011;271;51.114;13.780;2023-06-22T11:38:07;18.77;;;8.47;;
572;SDS011;271;51.114;13.780;2023-06-22T11:40:54;19.10;;;8.60;;
572;SDS011;271;51.114;13.780;2023-06-22T11:43:42;19.00;;;8.20;;
572;SDS011;271;51.114;13.780;2023-06-22T11:46:33;19.10;;;8.10;;
572;SDS011;271;51.114;13.780;2023-06-22T11:49:21;20.60;;;8.60;;
572;SDS011;271;51.114;13.780;2023-06-22T11:52:09;19.00;;;8.53;;
572;SDS011;271;51.114;13.780;2023-06-22T11:54:56;18.40;;;8.10;;
572;SDS011;271;51.114;13.780;2023-06-22T11:57:52;18.90;;;7.90;;
572;SDS011;271;51.114;13.780;2023-06-22T12:00:41;20.30;;;7.90;;
572;SDS011;271;51.114;13.780;2023-06-22T12:03:32;18.90;;;8.93;;
572;SDS011;271;51.114;13.780;2023-06-22T12:06:19;20.00;;;9.00;;
572;SDS011;271;51.114;13.780;2023-06-22T12:09:07;19.43;;;9.40;;
572;SDS011;271;51.114;13.780;2023-06-22T12:11:55;18.40;;;8.20;;
572;SDS011;271;51.114;13.780;2023-06-22T12:14:43;18.60;;;8.23;;
572;SDS011;271;51.114;13.780;2023-06-22T12:17:31;18.10;;;7.30;;
572;SDS011;271;51.114;13.780;2023-06-22T12:20:20;19.23;;;8.83;;
572;SDS011;271;51.114;13.780;2023-06-22T12:23:07;21.00;;;8.90;;
572;SDS011;271;51.114;13.780;2023-06-22T12:25:55;20.37;;;8.53;;
572;SDS011;271;51.114;13.780;2023-06-22T12:28:43;19.80;;;8.60;;
572;SDS011;271;51.114;13.780;2023-06-22T12:31:30;19.47;;;9.30;;
572;SDS011;271;51.114;13.780;2023-06-22T12:34:18;19.53;;;8.97;;
572;SDS011;271;51.114;13.780;2023-06-22T12:37:07;19.50;;;9.37;;
572;SDS011;271;51.114;13.780;2023-06-22T12:39:55;19.83;;;8.57;;
572;SDS011;271;51.114;13.780;2023-06-22T12:42:44;20.90;;;9.00;;
572;SDS011;271;51.114;13.780;2023-06-22T12:45:32;18.80;;;8.80;;
572;SDS011;271;51.114;13.780;2023-06-22T12:48:21;20.27;;;8.80;;
572;SDS011;271;51.114;13.780;2023-06-22T12:51:09;19.30;;;9.17;;
572;SDS011;271;51.114;13.780;2023-06-22T12:53:58;21.73;;;9.10;;
572;SDS011;271;51.114;13.780;2023-06-22T12:56:46;19.80;;;8.67;;
572;SDS011;271;51.114;13.780;2023-06-22T12:59:33;21.90;;;9.20;;
572;SDS011;271;51.114;13.780;2023-06-22T13:02:21;19.87;;;9.00;;
572;SDS011;271;51.114;13.780;2023-06-22T13:05:09;22.03;;;9.37;;
572;SDS011;271;51.114;13.780;2023-06-22T13:07:56;18.70;;;8.27;;
572;SDS011;271;51.114;13.780;2023-06-22T13:10:45;19.00;;;8.83;;
572;SDS011;271;51.114;13.780;2023-06-22T13:13:33;19.43;;;8.93;;
572;SDS011;271;51.114;13.780;2023-06-22T13:16:21;20.97;;;8.97;;
572;SDS011;271;51.114;13.780;2023-06-22T13:19:09;19.27;;;8.80;;
572;SDS011;271;51.114;13.780;2023-06-22T13:21:56;19.77;;;8.47;;
572;SDS011;271;51.114;13.780;2023-06-22T13:24:44;19.10;;;8.20;;
572;SDS011;271;51.114;13.780;2023-06-22T13:27:33;19.77;;;8.77;;
572;SDS011;271;51.114;13.780;2023-06-22T13:30:21;19.27;;;8.30;;
572;SDS011;271;51.114;13.780;2023-06-22T13:33:08;21.00;;;9.60;;
572;SDS011;271;51.114;13.780;2023-06-22T13:35:56;18.57;;;7.90;;
572;SDS011;271;51.114;13.780;2023-06-22T13:38:44;19.03;;;8.63;;
572;SDS011;271;51.114;13.780;2023-06-22T13:41:32;19.50;;;8.70;;
572;SDS011;271;51.114;13.780;2023-06-22T13:44:21;18.73;;;8.07;;
572;SDS011;271;51.114;13.780;2023-06-22T13:47:08;19.07;;;8.80;;
572;SDS011;271;51.114;13.780;2023-06-22T13:49:56;19.17;;;8.20;;
572;SDS011;271;51.114;13.780;2023-06-22T13:52:44;18.63;;;8.23;;
572;SDS011;271;51.114;13.780;2023-06-22T13:55:32;20.87;;;8.80;;
572;SDS011;271;51.114;13.780;2023-06-22T13:58:20;19.63;;;9.03;;
572;SDS011;271;51.114;13.780;2023-06-22T14:01:09;20.03;;;9.47;;
572;SDS011;271;51.114;13.780;2023-06-22T14:03:57;21.73;;;8.97;;
572;SDS011;271;51.114;13.780;2023-06-22T14:06:44;19.97;;;8.43;;
572;SDS011;271;51.114;13.780;2023-06-22T14:09:32;20.53;;;9.10;;
572;SDS011;271;51.114;13.780;2023-06-22T14:12:20;20.73;;;9.50;;
572;SDS011;271;51.114;13.780;2023-06-22T14:15:08;20.37;;;8.93;;
572;SDS011;271;51.114;13.780;2023-06-22T14:17:57;20.57;;;8.90;;
572;SDS011;271;51.114;13.780;2023-06-22T14:20:45;23.70;;;10.13;;
572;SDS011;271;51.114;13.780;2023-06-22T14:23:33;18.80;;;8.70;;
572;SDS011;271;51.114;13.780;2023-06-22T14:26:21;19.13;;;8.50;;
572;SDS011;271;51.114;13.780;2023-06-22T14:29:09;22.47;;;9.77;;
572;SDS011;271;51.114;13.780;2023-06-22T14:31:57;20.13;;;9.70;;
572;SDS011;271;51.114;13.780;2023-06-22T14:34:46;20.00;;;8.97;;
572;SDS011;271;51.114;13.780;2023-06-22T14:37:35;21.50;;;8.40;;
572;SDS011;271;51.114;13.780;2023-06-22T14:40:23;22.97;;;9.90;;
572;SDS011;271;51.114;13.780;2023-06-22T14:43:11;19.07;;;8.70;;
572;SDS011;271;51.114;13.780;2023-06-22T14:45:59;20.17;;;9.07;;
572;SDS011;271;51.114;13.780;2023-06-22T14:48:46;21.73;;;9.43;;
572;SDS011;271;51.114;13.780;2023-06-22T14:51:36;18.63;;;8.50;;
572;SDS011;271;51.114;13.780;2023-06-22T14:54:23;18.73;;;8.87;;
572;SDS011;271;51.114;13.780;2023-06-22T14:57:11;21.77;;;9.80;;
572;SDS011;271;51.114;13.780;2023-06-22T15:00:04;20.10;;;9.47;;
572;SDS011;271;51.114;13.780;2023-06-22T15:02:53;19.87;;;9.13;;
572;SDS011;271;51.114;13.780;2023-06-22T15:05:40;20.40;;;9.40;;
572;SDS011;271;51.114;13.780;2023-06-22T15:08:29;21.17;;;10.53;;
572;SDS011;271;51.114;13.780;2023-06-22T15:11:17;20.60;;;9.20;;
572;SDS011;271;51.114;13.780;2023-06-22T15:14:05;19.73;;;9.60;;
572;SDS011;271;51.114;13.780;2023-06-22T15:16:53;18.93;;;8.50;;
572;SDS011;271;51.114;13.780;2023-06-22T15:19:41;20.50;;;9.33;;
572;SDS011;271;51.114;13.780;2023-06-22T15:22:28;18.60;;;8.53;;
572;SDS011;271;51.114;13.780;2023-06-22T15:25:18;20.93;;;9.07;;
572;SDS011;271;51.114;13.780;2023-06-22T15:28:08;19.97;;;9.50;;
572;SDS011;271;51.114;13.780;2023-06-22T15:30:56;23.17;;;9.93;;
572;SDS011;271;51.114;13.780;2023-06-22T15:33:44;21.10;;;9.50;;
572;SDS011;271;51.114;13.780;2023-06-22T15:36:32;21.77;;;9.00;;
572;SDS011;271;51.114;13.780;2023-06-22T15:39:20;19.40;;;9.47;;
572;SDS011;271;51.114;13.780;2023-06-22T15:42:10;20.13;;;9.00;;
572;SDS011;271;51.114;13.780;2023-06-22T15:44:58;19.97;;;9.40;;
572;SDS011;271;51.114;13.780;2023-06-22T15:47:46;19.20;;;9.43;;
572;SDS011;271;51.114;13.780;2023-06-22T15:50:33;20.70;;;9.73;;
572;SDS011;271;51.114;13.780;2023-06-22T15:53:21;22.40;;;10.23;;
572;SDS011;271;51.114;13.780;2023-06-22T15:56:09;20.03;;;10.43;;
572;SDS011;271;51.114;13.780;2023-06-22T15:58:58;22.53;;;10.13;;
572;SDS011;271;51.114;13.780;2023-06-22T16:01:46;19.70;;;10.10;;
572;SDS011;271;51.114;13.780;2023-06-22T16:04:34;21.10;;;10.73;;
572;SDS011;271;51.114;13.780;2023-06-22T16:07:22;21.53;;;10.97;;
572;SDS011;271;51.114;13.780;2023-06-22T16:10:10;21.20;;;10.13;;
572;SDS011;271;51.114;13.780;2023-06-22T16:13:00;24.50;;;10.90;;
572;SDS011;271;51.114;13.780;2023-06-22T16:15:49;19.67;;;9.73;;
572;SDS011;271;51.114;13.780;2023-06-22T16:18:36;20.50;;;10.30;;
572;SDS011;271;51.114;13.780;2023-06-22T16:21:26;20.47;;;10.27;;
572;SDS011;271;51.114;13.780;2023-06-22T16:24:15;20.37;;;9.90;;
572;SDS011;271;51.114;13.780;2023-06-22T16:27:03;20.30;;;10.70;;
572;SDS011;271;51.114;13.780;2023-06-22T16:29:51;22.00;;;10.43;;
572;SDS011;271;51.114;13.780;2023-06-22T16:32:40;21.00;;;10.70;;
572;SDS011;271;51.114;13.780;2023-06-22T16:35:37;21.50;;;10.77;;
572;SDS011;271;51.114;13.780;2023-06-22T16:38:26;19.70;;;10.20;;
572;SDS011;271;51.114;13.780;2023-06-22T16:41:15;22.30;;;11.50;;
572;SDS011;271;51.114;13.780;2023-06-22T16:44:03;21.07;;;10.00;;
572;SDS011;271;51.114;13.780;2023-06-22T16:46:52;21.80;;;11.33;;
572;SDS011;271;51.114;13.780;2023-06-22T16:49:41;22.47;;;10.70;;
572;SDS011;271;51.114;13.780;2023-06-22T16:52:29;19.57;;;9.53;;
572;SDS011;271;51.114;13.780;2023-06-22T16:55:16;20.80;;;10.17;;
572;SDS011;271;51.114;13.780;2023-06-22T16:58:08;20.53;;;9.53;;
572;SDS011;271;51.114;13.780;2023-06-22T17:00:58;20.90;;;10.77;;
572;SDS011;271;51.114;13.780;2023-06-22T17:03:48;20.57;;;10.20;;
572;SDS011;271;51.114;13.780;2023-06-22T17:06:46;20.10;;;10.23;;
572;SDS011;271;51.114;13.780;2023-06-22T17:09:40;20.50;;;10.67;;
572;SDS011;271;51.114;13.780;2023-06-22T17:12:32;21.10;;;10.40;;
572;SDS011;271;51.114;13.780;2023-06-22T17:15:20;22.20;;;9.70;;
572;SDS011;271;51.114;13.780;2023-06-22T17:18:08;21.40;;;10.40;;
572;SDS011;271;51.114;13.780;2023-06-22T17:20:56;21.90;;;9.90;;
572;SDS011;271;51.114;13.780;2023-06-22T17:23:46;21.70;;;10.50;;
572;SDS011;271;51.114;13.780;2023-06-22T17:26:35;21.53;;;10.03;;
572;SDS011;271;51.114;13.780;2023-06-22T17:29:27;21.20;;;10.13;;
572;SDS011;271;51.114;13.780;2023-06-22T17:32:17;23.10;;;10.50;;
572;SDS011;271;51.114;13.780;2023-06-22T17:35:09;20.90;;;9.00;;